Time;durP1;ratioP1;P1;durP2;ratioP2;P2;SDS_P1;SDS_P2;PMS_P1;PMS_P2;Temp;Humidity;BMP_temperature;BMP_pressure;BME280_temperature;BME280_humidity;BME280_pressure;Samples;Min_cycle;Max_cycle;Signal;HPM_P1;HPM_P2
2024/01/07 00:07:13;;;;;;;8.70;2.77;;;;;;;10.27;100.00;99738.31;31523520;28;20401;-78
2024/01/07 00:22:16;;;;;;;7.70;2.77;;;;;;;9.23;100.00;99718.13;31494355;28;20044;-79
2024/01/07 00:37:18;;;;;;;6.20;2.53;;;;;;;9.28;100.00;99723.03;31529420;28;20063;-79
2024/01/07 00:52:21;;;;;;;6.53;2.60;;;;;;;9.07;100.00;99707.22;31508317;28;20057;-79
2024/01/07 01:07:23;;;;;;;4.13;2.63;;;;;;;10.28;100.00;99710.00;31506234;28;20052;-83
2024/01/07 01:22:25;;;;;;;4.50;2.70;;;;;;;9.29;100.00;99718.38;31505447;28;20048;-78
2024/01/07 01:37:27;;;;;;;4.97;2.27;;;;;;;9.43;100.00;99712.69;31500890;28;20056;-78
2024/01/07 01:52:29;;;;;;;4.70;2.40;;;;;;;10.74;100.00;99725.09;31501979;28;20052;-77
2024/01/07 02:07:32;;;;;;;7.80;2.33;;;;;;;10.93;100.00;99718.75;31496054;28;20052;-78
2024/01/07 02:22:34;;;;;;;9.20;3.33;;;;;;;10.94;100.00;99701.28;31500496;28;20048;-79
2024/01/07 02:37:36;;;;;;;6.57;2.67;;;;;;;10.86;100.00;99699.97;31495386;28;20088;-78
2024/01/07 02:52:38;;;;;;;5.13;2.53;;;;;;;10.86;100.00;99705.41;31495365;28;20052;-78
2024/01/07 03:07:40;;;;;;;3.30;2.00;;;;;;;9.63;100.00;99710.69;31495650;28;20056;-79
2024/01/07 03:22:42;;;;;;;7.07;3.60;;;;;;;9.46;100.00;99684.72;31473698;28;20041;-79
2024/01/07 03:37:44;;;;;;;8.70;3.40;;;;;;;9.67;100.00;99708.69;31497802;28;20044;-80
2024/01/07 03:52:46;;;;;;;10.60;3.67;;;;;;;10.82;100.00;99738.06;31545865;28;20507;-79
2024/01/07 04:07:48;;;;;;;14.30;4.53;;;;;;;9.45;100.00;99732.75;31524537;28;20056;-79
2024/01/07 04:22:51;;;;;;;14.00;5.87;;;;;;;9.40;100.00;99751.47;31505917;28;20056;-79
2024/01/07 04:37:53;;;;;;;18.30;7.80;;;;;;;9.22;100.00;99741.72;31503366;28;20064;-78
2024/01/07 04:52:55;;;;;;;19.73;10.40;;;;;;;9.17;100.00;99765.84;31497649;28;20062;-77
2024/01/07 05:07:59;;;;;;;15.43;7.63;;;;;;;8.96;100.00;99758.88;31506091;28;20055;-79
2024/01/07 05:23:01;;;;;;;13.53;4.80;;;;;;;9.01;100.00;99757.63;31505023;28;20040;-78
2024/01/07 05:38:03;;;;;;;8.30;4.00;;;;;;;10.24;100.00;99780.59;31492699;28;20432;-79
2024/01/07 05:53:05;;;;;;;10.30;4.97;;;;;;;9.02;100.00;99765.31;31495424;28;20087;-77
2024/01/07 06:08:07;;;;;;;10.90;4.90;;;;;;;8.72;100.00;99757.41;31493863;28;20063;-79
2024/01/07 06:23:09;;;;;;;11.93;6.10;;;;;;;8.54;100.00;99763.84;31485568;28;20476;-79
2024/01/07 06:38:12;;;;;;;19.40;8.00;;;;;;;8.11;100.00;99760.28;31486742;28;20051;-78
2024/01/07 06:53:14;;;;;;;20.63;8.53;;;;;;;7.74;100.00;99778.19;31491773;28;20063;-81
2024/01/07 07:08:16;;;;;;;16.77;7.30;;;;;;;7.60;100.00;99780.28;31487804;28;20041;-80
2024/01/07 07:23:18;;;;;;;16.53;7.30;;;;;;;7.28;100.00;99826.59;31483963;28;20122;-81
2024/01/07 07:38:20;;;;;;;19.40;7.97;;;;;;;6.90;100.00;99802.28;31491782;28;20066;-80
2024/01/07 07:53:23;;;;;;;20.00;7.77;;;;;;;6.77;100.00;99841.72;31509995;28;20116;-82
2024/01/07 08:08:25;;;;;;;22.60;7.97;;;;;;;6.83;100.00;99845.53;31481061;28;20053;-83
2024/01/07 08:23:27;;;;;;;15.10;7.43;;;;;;;6.85;100.00;99832.38;31480750;28;20045;-83
2024/01/07 08:38:29;;;;;;;13.03;6.17;;;;;;;6.48;100.00;99852.72;31516125;28;20045;-83
2024/01/07 08:53:34;;;;;;;14.13;5.27;;;;;;;6.15;100.00;99837.13;31522359;28;20052;-81
2024/01/07 09:08:36;;;;;;;14.43;7.53;;;;;;;6.48;100.00;99831.16;31469298;28;20052;-82
2024/01/07 09:23:38;;;;;;;13.07;6.60;;;;;;;6.12;100.00;99827.16;31519614;28;20488;-83
2024/01/07 09:38:40;;;;;;;13.57;6.33;;;;;;;6.22;100.00;99823.63;31515329;28;20059;-85
2024/01/07 09:53:45;;;;;;;14.20;7.00;;;;;;;6.19;100.00;99819.03;31417249;28;20047;-84
2024/01/07 10:08:47;;;;;;;11.20;5.70;;;;;;;6.55;100.00;99814.16;31503550;28;20060;-85
2024/01/07 10:23:49;;;;;;;20.73;8.53;;;;;;;5.93;100.00;99833.03;31510626;28;20052;-78
2024/01/07 10:38:52;;;;;;;16.40;8.27;;;;;;;7.11;100.00;99775.06;31475022;28;20044;-81
2024/01/07 10:53:56;;;;;;;22.97;10.33;;;;;;;5.80;100.00;99759.97;31497179;28;20233;-79
2024/01/07 11:09:06;;;;;;;14.37;7.60;;;;;;;5.70;100.00;99780.41;31463137;28;20402;-80
2024/01/07 11:24:08;;;;;;;18.67;8.93;;;;;;;6.67;100.00;99761.63;31465501;28;20047;-80
2024/01/07 11:39:11;;;;;;;17.93;8.63;;;;;;;5.64;100.00;99746.22;31458202;28;20052;-81
2024/01/07 11:54:13;;;;;;;17.93;9.20;;;;;;;5.13;100.00;99791.41;31469358;28;20073;-80
2024/01/07 12:09:16;;;;;;;21.23;9.07;;;;;;;4.79;100.00;99774.94;31526663;28;20420;-79
2024/01/07 12:24:18;;;;;;;30.63;11.70;;;;;;;4.89;100.00;99778.00;31526652;28;20052;-82
2024/01/07 12:39:21;;;;;;;32.83;13.63;;;;;;;4.92;100.00;99786.06;31532424;28;20392;-83
2024/01/07 12:54:27;;;;;;;34.83;13.80;;;;;;;4.65;100.00;99779.56;31523596;28;20063;-88
2024/01/07 13:09:58;;;;;;;39.00;17.80;;;;;;;4.88;100.00;99766.47;31541135;28;20057;-85
2024/01/07 13:25:01;;;;;;;36.37;16.93;;;;;;;4.66;100.00;99775.72;31517542;28;20056;-86
2024/01/07 13:40:04;;;;;;;28.93;13.17;;;;;;;4.53;100.00;99796.84;31522600;28;20488;-86
2024/01/07 13:55:13;;;;;;;31.03;15.30;;;;;;;4.42;100.00;99810.31;31522789;28;20087;-81
2024/01/07 14:10:16;;;;;;;49.50;18.23;;;;;;;4.23;100.00;99804.53;31496950;28;20495;-80
2024/01/07 14:25:22;;;;;;;33.17;13.30;;;;;;;4.23;100.00;99877.84;31429330;28;20118;-81
2024/01/07 14:40:25;;;;;;;35.77;14.10;;;;;;;4.01;100.00;99866.28;31444512;28;20056;-82
2024/01/07 14:55:27;;;;;;;22.03;12.13;;;;;;;3.58;100.00;99821.59;31471060;28;20049;-85
2024/01/07 15:10:29;;;;;;;26.27;12.43;;;;;;;3.33;100.00;99826.84;31468290;28;20496;-83
2024/01/07 15:25:32;;;;;;;25.33;11.13;;;;;;;3.45;100.00;99841.88;31447834;28;20105;-83
2024/01/07 15:40:35;;;;;;;32.80;12.90;;;;;;;3.19;100.00;99837.50;31434607;28;20099;-80
2024/01/07 15:55:39;;;;;;;28.00;11.27;;;;;;;3.25;100.00;99852.13;31519367;28;20048;-84
2024/01/07 16:10:41;;;;;;;24.50;10.83;;;;;;;3.12;100.00;99857.00;31524283;28;20052;-82
2024/01/07 16:25:43;;;;;;;20.20;10.17;;;;;;;3.06;100.00;99888.03;31633769;28;20099;-82
2024/01/07 16:40:46;;;;;;;28.60;11.60;;;;;;;2.97;100.00;99869.56;31555056;28;20056;-84
2024/01/07 16:55:48;;;;;;;19.83;8.80;;;;;;;3.84;100.00;99856.22;31556372;28;20064;-88
2024/01/07 17:10:54;;;;;;;29.90;13.10;;;;;;;3.25;100.00;99868.22;31542161;28;20075;-86
2024/01/07 17:25:57;;;;;;;16.93;8.10;;;;;;;2.87;100.00;99840.75;31472512;28;20048;-84
2024/01/07 17:40:59;;;;;;;9.43;4.83;;;;;;;2.95;100.00;99828.94;31507637;28;20044;-82
2024/01/07 17:56:33;;;;;;;8.47;4.33;;;;;;;2.62;100.00;99794.22;31527746;28;20065;-85
2024/01/07 18:11:36;;;;;;;8.47;3.90;;;;;;;2.41;100.00;99786.78;31531620;28;20064;-84
2024/01/07 18:26:38;;;;;;;7.00;4.37;;;;;;;2.61;100.00;99824.84;31474535;28;20057;-85
2024/01/07 18:41:40;;;;;;;9.97;4.83;;;;;;;2.63;100.00;99811.84;31460762;28;20079;-83
2024/01/07 18:56:42;;;;;;;8.53;4.63;;;;;;;2.40;100.00;99831.56;31444162;28;20063;-85
2024/01/07 19:11:44;;;;;;;5.17;3.27;;;;;;;2.18;100.00;99832.50;31428017;28;20111;-79
2024/01/07 19:26:47;;;;;;;3.57;3.07;;;;;;;2.14;100.00;99810.28;31430769;28;20057;-83
2024/01/07 19:41:50;;;;;;;4.47;3.33;;;;;;;2.29;100.00;99809.28;31467217;28;20460;-84
2024/01/07 19:56:52;;;;;;;8.83;4.47;;;;;;;3.04;100.00;99801.81;31435660;28;20049;-81
2024/01/07 20:11:54;;;;;;;8.93;5.13;;;;;;;3.85;100.00;99830.13;31446545;28;20048;-84
2024/01/07 20:26:57;;;;;;;8.43;5.37;;;;;;;3.53;100.00;99819.31;31453473;28;20079;-83
2024/01/07 20:41:59;;;;;;;9.00;5.73;;;;;;;2.00;100.00;99796.75;31460778;28;20049;-79
2024/01/07 20:57:01;;;;;;;8.67;5.30;;;;;;;2.35;100.00;99805.13;31521354;28;20147;-77
2024/01/07 21:12:04;;;;;;;9.47;5.67;;;;;;;2.42;100.00;99806.31;31422174;28;20063;-80
2024/01/07 21:27:06;;;;;;;7.27;5.07;;;;;;;1.90;100.00;99792.06;31522748;28;20094;-79
2024/01/07 21:42:08;;;;;;;5.63;3.80;;;;;;;2.24;100.00;99750.69;31521490;28;20522;-80
2024/01/07 21:57:10;;;;;;;5.87;3.97;;;;;;;2.26;100.00;99767.16;31496054;28;20076;-78
2024/01/07 22:12:12;;;;;;;8.53;4.77;;;;;;;2.22;100.00;99792.38;31503248;28;20060;-81
2024/01/07 22:27:15;;;;;;;7.53;4.93;;;;;;;2.06;100.00;99763.16;31518562;28;20088;-81
2024/01/07 22:42:17;;;;;;;4.60;3.13;;;;;;;1.74;100.00;99778.13;31534240;28;20080;-83
2024/01/07 22:57:19;;;;;;;7.67;4.03;;;;;;;1.79;100.00;99753.72;31522838;28;20741;-81
2024/01/07 23:12:22;;;;;;;7.17;4.57;;;;;;;1.81;100.00;99767.50;31543256;28;20048;-77
2024/01/07 23:27:26;;;;;;;6.80;4.13;;;;;;;1.88;100.00;99778.31;31517159;28;20040;-77
2024/01/07 23:42:28;;;;;;;7.53;3.73;;;;;;;1.87;100.00;99800.84;31472392;28;20044;-77
2024/01/07 23:57:31;;;;;;;10.43;6.03;;;;;;;1.93;100.00;99794.00;31492488;28;20095;-77
